Panda — H8NH — position and weather

sailwx.info

Track history (hours):
 
Tides and Currents Weather Stations Pressure Air Temp Water Temp Dewpoint Dewpoint Depression Visibility Wind Speed Wind Dir Waves Ship Positions

Panda

Last reported at 2016-Sep-25 21:32 UTC. Time now 2016-Sep-27 17:17 UTC.
Position N 44°41' E 037°51'.

Length 171 m; draft 5.1 m.

Type: Cargo ship. MMSI: 352528000.

Date/timePositionNaut miles runAvg speedWind from/ knotsBaromVisibWave heightAir tempDewpointWater temp
2016-Sep-25 21:32N 44°41' E 037°51'0 0.0
2016-Sep-25 17:29N 44°41' E 037°51'0 0.1
2016-Sep-25 16:32N 44°41' E 037°51'0 0.2
2016-Sep-25 15:32N 44°41' E 037°51'2 2.1
2016-Sep-25 14:31N 44°43' E 037°49'0 0.1
2016-Sep-25 12:31N 44°43' E 037°49'0 0.0
2016-Sep-25 11:31N 44°43' E 037°49'0 0.0
2016-Sep-25 10:31N 44°43' E 037°49'0 0.0
2016-Sep-25 09:31N 44°43' E 037°49'0 0.0
2016-Sep-25 07:31N 44°43' E 037°49'0 0.0
2016-Sep-25 04:31N 44°43' E 037°49'0 0.0
2016-Sep-25 00:31N 44°43' E 037°49'0 0.0
2016-Sep-24 22:31N 44°43' E 037°49'0 0.0
2016-Sep-24 21:31N 44°43' E 037°49'0 0.0
2016-Sep-24 19:31N 44°43' E 037°49'0 0.0
2016-Sep-24 18:31N 44°43' E 037°49'0 0.0
2016-Sep-24 10:31N 44°43' E 037°49'0 0.0
2016-Sep-24 09:31N 44°43' E 037°49'15 2.5
2016-Sep-24 03:33N 44°29' E 037°42'1 1.1
2016-Sep-24 02:33N 44°30' E 037°43'1 0.8
2016-Sep-24 01:33N 44°30' E 037°44'1 0.6
2016-Sep-24 00:33N 44°31' E 037°45'2 0.5
2016-Sep-23 19:33N 44°31' E 037°48'2 0.9
2016-Sep-23 17:33N 44°31' E 037°50'1 0.9
2016-Sep-23 16:33N 44°31' E 037°52'1 1.1
2016-Sep-23 15:33N 44°31' E 037°53'4 2.1
2016-Sep-23 13:33N 44°27' E 037°50'19 4.7
2016-Sep-23 09:33N 44°37' E 037°28'4 1.4
2016-Sep-23 06:33N 44°33' E 037°28'2 1.1
2016-Sep-23 04:33N 44°35' E 037°30'4 3.6
2016-Sep-23 03:33N 44°35' E 037°25'2 0.3
2016-Sep-22 20:28N 44°37' E 037°23'4 0.5
2016-Sep-22 12:33N 44°36' E 037°29'2 0.3
2016-Sep-22 04:33N 44°34' E 037°31'0 0.4
2016-Sep-22 03:33N 44°34' E 037°32'12441.4
2016-Sep-22 00:33N 43°27' E 039°57'118117.6
2016-Sep-21 23:33N 44°30' E 037°38'0 0.1
2016-Sep-21 22:33N 44°30' E 037°38'1 0.4
2016-Sep-21 19:33N 44°31' E 037°38'1 0.4
2016-Sep-21 16:33N 44°32' E 037°36'9 1.3
2016-Sep-21 09:33N 44°39' E 037°29'1 0.9
2016-Sep-21 08:30N 44°39' E 037°28'4 1.3
2016-Sep-21 05:32N 44°36' E 037°26'3 1.5
2016-Sep-21 03:33N 44°33' E 037°28'1 1.4
2016-Sep-21 02:33N 44°34' E 037°27'2 0.3
2016-Sep-20 17:33N 44°32' E 037°28'4 1.3
2016-Sep-20 14:33N 44°36' E 037°31'3 2.5
2016-Sep-20 13:33N 44°34' E 037°33'5 1.6
2016-Sep-20 10:33N 44°31' E 037°38'4 1.8
2016-Sep-20 08:33N 44°34' E 037°36'3 2.7
2016-Sep-20 07:33N 44°33' E 037°39'3 2.6
2016-Sep-20 06:33N 44°31' E 037°42'11 2.8
2016-Sep-20 02:31N 44°34' E 037°57'0 0.0
2016-Sep-19 23:31N 44°34' E 037°57'0 0.0
2016-Sep-19 19:31N 44°35' E 037°57'0 0.0
2016-Sep-19 18:31N 44°35' E 037°57'0 0.0
2016-Sep-19 16:28N 44°35' E 037°57'0 0.0
2016-Sep-19 14:31N 44°35' E 037°57'0 0.0
2016-Sep-19 13:31N 44°35' E 037°57'0 0.0
2016-Sep-19 12:31N 44°35' E 037°57'0 0.0
2016-Sep-19 11:31N 44°35' E 037°57'0 0.0
2016-Sep-19 09:31N 44°34' E 037°57'0 0.0
2016-Sep-19 07:31N 44°34' E 037°57'0 0.1
2016-Sep-19 06:31N 44°35' E 037°57'0 0.0
2016-Sep-19 03:31N 44°35' E 037°57'0 0.0
2016-Sep-19 02:31N 44°35' E 037°57'0 0.0
2016-Sep-19 00:31N 44°35' E 037°57'0 0.0
2016-Sep-18 19:31N 44°35' E 037°57'0 0.0
2016-Sep-18 15:31N 44°35' E 037°57'0 0.0
2016-Sep-18 14:31N 44°35' E 037°57'0 0.0
2016-Sep-18 10:28N 44°35' E 037°57'0 0.0
2016-Sep-18 09:31N 44°35' E 037°57'3 0.4
2016-Sep-18 02:33N 44°36' E 037°54'0 0.5
2016-Sep-18 01:33N 44°36' E 037°54'0 0.1
2016-Sep-18 00:33N 44°36' E 037°54'0 0.0
2016-Sep-17 22:33N 44°36' E 037°54'0 0.0
2016-Sep-17 21:33N 44°36' E 037°54'0 0.0
2016-Sep-17 20:33N 44°36' E 037°54'0 0.0
2016-Sep-17 19:15N 44°36' E 037°54'0 0.0
2016-Sep-17 13:33N 44°36' E 037°54'0 0.0
2016-Sep-17 12:33N 44°36' E 037°54'0 0.0
2016-Sep-17 10:33N 44°36' E 037°54'0 0.0
2016-Sep-17 09:33N 44°36' E 037°54'0 0.0
2016-Sep-17 08:33N 44°36' E 037°54'0 0.0
2016-Sep-17 07:33N 44°36' E 037°54'0 0.0
2016-Sep-17 05:33N 44°36' E 037°54'0 0.0
2016-Sep-17 04:33N 44°36' E 037°54'0 0.0
2016-Sep-17 00:33N 44°36' E 037°54'0 0.0
2016-Sep-16 17:33N 44°36' E 037°54'0 0.0
2016-Sep-16 15:33N 44°36' E 037°54'0 0.1
2016-Sep-16 12:33N 44°36' E 037°54'0 0.0
2016-Sep-16 09:33N 44°36' E 037°54'0 0.0
2016-Sep-16 07:32N 44°36' E 037°54'0 0.0
2016-Sep-16 03:32N 44°36' E 037°54'0 0.1
2016-Sep-16 02:32N 44°36' E 037°54'0 0.0
2016-Sep-16 00:32N 44°36' E 037°54'0 0.0
2016-Sep-15 22:32N 44°36' E 037°54'  
Track history (hours):
 
Tides and Currents Weather Stations Pressure Air Temp Water Temp Dewpoint Dewpoint Depression Visibility Wind Speed Wind Dir Waves Ship Positions

Panda

Last reported at 2016-Sep-25 21:32 UTC. Time now 2016-Sep-27 17:17 UTC.
Position N 44°41' E 037°51'.

Length 171 m; draft 5.1 m.

Type: Cargo ship. MMSI: 352528000.

Date/timePositionNaut miles runAvg speedWind from/ knotsBaromVisibWave heightAir tempDewpointWater temp
2016-Sep-25 21:32N 44°41' E 037°51'0 0.0
2016-Sep-25 17:29N 44°41' E 037°51'0 0.1
2016-Sep-25 16:32N 44°41' E 037°51'0 0.2
2016-Sep-25 15:32N 44°41' E 037°51'2 2.1
2016-Sep-25 14:31N 44°43' E 037°49'0 0.1
2016-Sep-25 12:31N 44°43' E 037°49'0 0.0
2016-Sep-25 11:31N 44°43' E 037°49'0 0.0
2016-Sep-25 10:31N 44°43' E 037°49'0 0.0
2016-Sep-25 09:31N 44°43' E 037°49'0 0.0
2016-Sep-25 07:31N 44°43' E 037°49'0 0.0
2016-Sep-25 04:31N 44°43' E 037°49'0 0.0
2016-Sep-25 00:31N 44°43' E 037°49'0 0.0
2016-Sep-24 22:31N 44°43' E 037°49'0 0.0
2016-Sep-24 21:31N 44°43' E 037°49'0 0.0
2016-Sep-24 19:31N 44°43' E 037°49'0 0.0
2016-Sep-24 18:31N 44°43' E 037°49'0 0.0
2016-Sep-24 10:31N 44°43' E 037°49'0 0.0
2016-Sep-24 09:31N 44°43' E 037°49'15 2.5
2016-Sep-24 03:33N 44°29' E 037°42'1 1.1
2016-Sep-24 02:33N 44°30' E 037°43'1 0.8
2016-Sep-24 01:33N 44°30' E 037°44'1 0.6
2016-Sep-24 00:33N 44°31' E 037°45'2 0.5
2016-Sep-23 19:33N 44°31' E 037°48'2 0.9
2016-Sep-23 17:33N 44°31' E 037°50'1 0.9
2016-Sep-23 16:33N 44°31' E 037°52'1 1.1
2016-Sep-23 15:33N 44°31' E 037°53'4 2.1
2016-Sep-23 13:33N 44°27' E 037°50'19 4.7
2016-Sep-23 09:33N 44°37' E 037°28'4 1.4
2016-Sep-23 06:33N 44°33' E 037°28'2 1.1
2016-Sep-23 04:33N 44°35' E 037°30'4 3.6
2016-Sep-23 03:33N 44°35' E 037°25'2 0.3
2016-Sep-22 20:28N 44°37' E 037°23'4 0.5
2016-Sep-22 12:33N 44°36' E 037°29'2 0.3
2016-Sep-22 04:33N 44°34' E 037°31'0 0.4
2016-Sep-22 03:33N 44°34' E 037°32'12441.4
2016-Sep-22 00:33N 43°27' E 039°57'118117.6
2016-Sep-21 23:33N 44°30' E 037°38'0 0.1
2016-Sep-21 22:33N 44°30' E 037°38'1 0.4
2016-Sep-21 19:33N 44°31' E 037°38'1 0.4
2016-Sep-21 16:33N 44°32' E 037°36'9 1.3
2016-Sep-21 09:33N 44°39' E 037°29'1 0.9
2016-Sep-21 08:30N 44°39' E 037°28'4 1.3
2016-Sep-21 05:32N 44°36' E 037°26'3 1.5
2016-Sep-21 03:33N 44°33' E 037°28'1 1.4
2016-Sep-21 02:33N 44°34' E 037°27'2 0.3
2016-Sep-20 17:33N 44°32' E 037°28'4 1.3
2016-Sep-20 14:33N 44°36' E 037°31'3 2.5
2016-Sep-20 13:33N 44°34' E 037°33'5 1.6
2016-Sep-20 10:33N 44°31' E 037°38'4 1.8
2016-Sep-20 08:33N 44°34' E 037°36'3 2.7
2016-Sep-20 07:33N 44°33' E 037°39'3 2.6
2016-Sep-20 06:33N 44°31' E 037°42'11 2.8
2016-Sep-20 02:31N 44°34' E 037°57'0 0.0
2016-Sep-19 23:31N 44°34' E 037°57'0 0.0
2016-Sep-19 19:31N 44°35' E 037°57'0 0.0
2016-Sep-19 18:31N 44°35' E 037°57'0 0.0
2016-Sep-19 16:28N 44°35' E 037°57'0 0.0
2016-Sep-19 14:31N 44°35' E 037°57'0 0.0
2016-Sep-19 13:31N 44°35' E 037°57'0 0.0
2016-Sep-19 12:31N 44°35' E 037°57'0 0.0
2016-Sep-19 11:31N 44°35' E 037°57'0 0.0
2016-Sep-19 09:31N 44°34' E 037°57'0 0.0
2016-Sep-19 07:31N 44°34' E 037°57'0 0.1
2016-Sep-19 06:31N 44°35' E 037°57'0 0.0
2016-Sep-19 03:31N 44°35' E 037°57'0 0.0
2016-Sep-19 02:31N 44°35' E 037°57'0 0.0
2016-Sep-19 00:31N 44°35' E 037°57'0 0.0
2016-Sep-18 19:31N 44°35' E 037°57'0 0.0
2016-Sep-18 15:31N 44°35' E 037°57'0 0.0
2016-Sep-18 14:31N 44°35' E 037°57'0 0.0
2016-Sep-18 10:28N 44°35' E 037°57'0 0.0
2016-Sep-18 09:31N 44°35' E 037°57'3 0.4
2016-Sep-18 02:33N 44°36' E 037°54'0 0.5
2016-Sep-18 01:33N 44°36' E 037°54'0 0.1
2016-Sep-18 00:33N 44°36' E 037°54'0 0.0
2016-Sep-17 22:33N 44°36' E 037°54'0 0.0
2016-Sep-17 21:33N 44°36' E 037°54'0 0.0
2016-Sep-17 20:33N 44°36' E 037°54'0 0.0
2016-Sep-17 19:15N 44°36' E 037°54'0 0.0
2016-Sep-17 13:33N 44°36' E 037°54'0 0.0
2016-Sep-17 12:33N 44°36' E 037°54'0 0.0
2016-Sep-17 10:33N 44°36' E 037°54'0 0.0
2016-Sep-17 09:33N 44°36' E 037°54'0 0.0
2016-Sep-17 08:33N 44°36' E 037°54'0 0.0
2016-Sep-17 07:33N 44°36' E 037°54'0 0.0
2016-Sep-17 05:33N 44°36' E 037°54'0 0.0
2016-Sep-17 04:33N 44°36' E 037°54'0 0.0
2016-Sep-17 00:33N 44°36' E 037°54'0 0.0
2016-Sep-16 17:33N 44°36' E 037°54'0 0.0
2016-Sep-16 15:33N 44°36' E 037°54'0 0.1
2016-Sep-16 12:33N 44°36' E 037°54'0 0.0
2016-Sep-16 09:33N 44°36' E 037°54'0 0.0
2016-Sep-16 07:32N 44°36' E 037°54'0 0.0
2016-Sep-16 03:32N 44°36' E 037°54'0 0.1
2016-Sep-16 02:32N 44°36' E 037°54'0 0.0
2016-Sep-16 00:32N 44°36' E 037°54'0 0.0
2016-Sep-15 22:32N 44°36' E 037°54'  

Dump ship's entire track history